Time;durP1;ratioP1;P1;durP2;ratioP2;P2;SDS_P1;SDS_P2;PMS_P1;PMS_P2;Temp;Humidity;BMP_temperature;BMP_pressure;BME280_temperature;BME280_humidity;BME280_pressure;Samples;Min_cycle;Max_cycle;Signal;HPM_P1;HPM_P2
2021/09/05 00:02:16;;;;;;;;;28.00;27.67;;;;;19.88;76.03;101164.56;5059347;28;45318;-76
2021/09/05 00:04:41;;;;;;;;;30.33;28.33;;;;;19.92;76.30;101173.00;5060133;28;45331;-75
2021/09/05 00:07:07;;;;;;;;;28.33;27.00;;;;;19.94;76.13;101179.03;5059174;28;45497;-76
2021/09/05 00:09:32;;;;;;;;;30.00;29.00;;;;;19.94;75.98;101173.63;5059822;28;45452;-76
2021/09/05 00:11:58;;;;;;;;;24.67;24.67;;;;;19.93;76.18;101174.66;5059909;28;45303;-76
2021/09/05 00:14:23;;;;;;;;;26.67;24.67;;;;;19.94;76.04;101169.03;5059938;28;45314;-76
2021/09/05 00:16:49;;;;;;;;;26.00;26.00;;;;;19.94;76.31;101179.03;5059682;28;45459;-76
2021/09/05 00:19:14;;;;;;;;;28.00;27.00;;;;;19.93;75.64;101172.78;5058393;28;45896;-76
2021/09/05 00:21:40;;;;;;;;;26.33;24.67;;;;;19.96;76.11;101176.09;5059593;28;46573;-76
2021/09/05 00:24:05;;;;;;;;;29.33;27.67;;;;;19.93;76.03;101171.97;5059972;28;45264;-76
2021/09/05 00:26:32;;;;;;;;;30.00;29.00;;;;;19.91;75.73;101163.28;5059581;28;45306;-76
2021/09/05 00:28:58;;;;;;;;;26.00;26.00;;;;;19.94;75.67;101179.03;5059624;28;45848;-75
2021/09/05 00:31:23;;;;;;;;;27.33;26.00;;;;;19.94;76.18;101166.34;5076874;28;45452;-76
2021/09/05 00:33:49;;;;;;;;;28.00;25.00;;;;;19.93;75.59;101151.22;5079860;28;45255;-76
2021/09/05 00:36:14;;;;;;;;;25.67;25.00;;;;;19.92;75.72;101156.84;5079904;28;45432;-76
2021/09/05 00:38:39;;;;;;;;;27.00;27.00;;;;;19.93;76.04;101155.78;5078340;28;46105;-76
2021/09/05 00:41:05;;;;;;;;;26.33;26.00;;;;;19.95;76.03;101156.38;5079598;28;45262;-76
2021/09/05 00:43:30;;;;;;;;;26.67;26.00;;;;;19.96;75.96;101149.94;5078428;28;45288;-76
2021/09/05 00:45:56;;;;;;;;;29.00;26.00;;;;;20.00;75.67;101148.44;5078554;28;45329;-76
2021/09/05 00:48:21;;;;;;;;;25.67;25.33;;;;;20.05;75.59;101153.16;5079814;27;45260;-76
2021/09/05 00:50:46;;;;;;;;;24.00;24.00;;;;;20.07;75.34;101156.47;5078287;28;46999;-76
2021/09/05 00:53:12;;;;;;;;;24.00;22.67;;;;;20.08;75.55;101149.19;5078167;28;45282;-76
2021/09/05 00:55:38;;;;;;;;;25.67;23.67;;;;;20.12;75.07;101155.78;5079654;28;45208;-76
2021/09/05 00:58:11;;;;;;;;;25.67;22.67;;;;;20.11;75.55;101148.75;5079275;28;46144;-76
2021/09/05 01:00:37;;;;;;;;;21.00;19.00;;;;;20.13;75.66;101146.63;5078202;28;47315;-76
2021/09/05 01:03:03;;;;;;;;;22.00;21.00;;;;;20.17;75.24;101143.25;5078103;28;45296;-76
2021/09/05 01:05:30;;;;;;;;;22.33;21.33;;;;;20.21;75.41;101157.13;5079641;28;45504;-76
2021/09/05 01:07:55;;;;;;;;;21.33;19.67;;;;;20.23;75.19;101149.59;5077668;28;45925;-76
2021/09/05 01:10:21;;;;;;;;;23.33;23.33;;;;;20.25;75.45;101152.06;5077788;28;47432;-76
2021/09/05 01:12:46;;;;;;;;;22.67;22.33;;;;;20.23;75.66;101149.59;5079382;28;45331;-76
2021/09/05 01:15:11;;;;;;;;;19.67;19.67;;;;;20.26;75.48;101151.84;5081146;28;45334;-76
2021/09/05 01:17:39;;;;;;;;;20.67;20.33;;;;;20.26;75.06;101143.75;5082791;28;45367;-76
2021/09/05 01:20:06;;;;;;;;;23.00;23.00;;;;;20.29;75.42;101154.09;5082765;28;45235;-76
2021/09/05 01:22:32;;;;;;;;;19.00;19.00;;;;;20.30;75.28;101141.41;5082565;28;45270;-76
2021/09/05 01:24:57;;;;;;;;;21.67;20.67;;;;;20.33;75.00;101153.63;5081403;28;45293;-76
2021/09/05 01:27:22;;;;;;;;;22.67;21.67;;;;;20.30;75.04;101147.63;5082890;28;45192;-76
2021/09/05 01:29:48;;;;;;;;;21.00;19.67;;;;;20.34;74.71;101160.66;5078442;28;45335;-76
2021/09/05 01:32:13;;;;;;;;;20.00;20.00;;;;;20.33;75.11;101150.94;5061146;28;45358;-76
2021/09/05 01:34:39;;;;;;;;;20.00;20.00;;;;;20.33;75.03;101150.94;5062467;28;45518;-76
2021/09/05 01:37:04;;;;;;;;;22.00;21.00;;;;;20.30;74.64;101150.31;5062073;28;45250;-76
2021/09/05 01:39:30;;;;;;;;;17.67;17.67;;;;;20.30;75.20;101160.31;5061950;28;46091;-76
2021/09/05 01:41:55;;;;;;;;;21.67;21.33;;;;;20.30;75.13;101155.72;5060845;28;45290;-76
2021/09/05 01:44:23;;;;;;;;;21.00;19.67;;;;;20.28;74.84;101152.44;5062108;28;45361;-76
2021/09/05 01:46:49;;;;;;;;;21.33;20.00;;;;;20.29;74.82;101159.47;5062169;28;45241;-76
2021/09/05 01:49:15;;;;;;;;;25.33;25.33;;;;;20.28;74.75;101152.44;5060689;28;48420;-76
2021/09/05 01:51:40;;;;;;;;;19.00;19.00;;;;;20.27;75.20;101152.69;5060684;28;45366;-76
2021/09/05 01:54:06;;;;;;;;;21.00;21.00;;;;;20.17;75.10;101134.31;5061939;28;45298;-76
2021/09/05 01:56:32;;;;;;;;;18.00;17.00;;;;;20.27;75.22;101160.78;5061909;28;45216;-76
2021/09/05 01:58:59;;;;;;;;;21.00;21.00;;;;;20.24;75.52;101159.34;5061925;28;45159;-76
2021/09/05 02:01:25;;;;;;;;;18.67;18.67;;;;;20.24;74.93;101164.75;5061888;28;45369;-76
2021/09/05 02:03:50;;;;;;;;;24.33;21.33;;;;;20.26;75.25;101170.72;5062040;28;45302;-76
2021/09/05 02:06:16;;;;;;;;;23.67;22.00;;;;;20.27;75.34;101169.69;5061825;28;45276;-76
2021/09/05 02:08:42;;;;;;;;;19.00;18.33;;;;;20.26;75.22;101168.03;5062008;28;46364;-76
2021/09/05 02:11:07;;;;;;;;;21.67;21.00;;;;;20.24;75.05;101175.56;5061669;28;45256;-76
2021/09/05 02:13:32;;;;;;;;;24.33;24.33;;;;;20.26;75.00;101176.13;5062658;28;45492;-76
2021/09/05 02:15:58;;;;;;;;;21.00;20.33;;;;;20.25;75.32;101182.59;5061720;28;45582;-75
2021/09/05 02:18:24;;;;;;;;;20.67;20.67;;;;;20.22;75.01;101188.44;5061463;28;46456;-76
2021/09/05 02:20:49;;;;;;;;;24.67;24.67;;;;;20.21;74.93;101186.78;5060256;28;45239;-76
2021/09/05 02:23:15;;;;;;;;;24.67;22.00;;;;;20.20;75.04;101184.31;5061707;28;45196;-76
2021/09/05 02:25:40;;;;;;;;;20.00;18.67;;;;;20.17;75.22;101178.31;5060870;28;45481;-76
2021/09/05 02:28:06;;;;;;;;;20.33;20.00;;;;;20.16;75.69;101175.84;5061382;28;46255;-76
2021/09/05 02:30:34;;;;;;;;;23.00;22.33;;;;;20.10;75.06;101169.50;5071769;28;45405;-76
2021/09/05 02:33:00;;;;;;;;;25.33;25.00;;;;;20.13;75.44;101179.84;5081780;28;45342;-76
2021/09/05 02:35:25;;;;;;;;;25.33;25.00;;;;;20.12;75.52;101171.97;5081664;28;45293;-76
2021/09/05 02:37:51;;;;;;;;;24.33;24.00;;;;;20.11;75.59;101173.84;5081400;28;46013;-76
2021/09/05 02:40:16;;;;;;;;;25.67;24.00;;;;;20.09;75.46;101169.72;5080034;28;45334;-76
2021/09/05 02:42:41;;;;;;;;;23.67;21.67;;;;;20.10;75.37;101171.38;5081605;27;45552;-76
2021/09/05 02:45:07;;;;;;;;;26.67;26.67;;;;;20.08;75.44;101173.50;5081411;28;45353;-76
2021/09/05 02:47:33;;;;;;;;;23.67;22.67;;;;;20.07;75.66;101175.34;5081395;28;46411;-75
2021/09/05 02:49:59;;;;;;;;;25.67;25.67;;;;;20.04;75.09;101168.53;5081677;28;45156;-76
2021/09/05 02:52:25;;;;;;;;;23.33;23.00;;;;;20.04;75.19;101167.72;5080179;28;45342;-76
2021/09/05 02:54:50;;;;;;;;;21.00;20.67;;;;;20.05;75.73;101170.19;5080095;28;45216;-76
2021/09/05 02:57:16;;;;;;;;;19.67;19.67;;;;;20.02;74.83;101167.94;5081145;28;46458;-76
2021/09/05 02:59:41;;;;;;;;;20.67;20.67;;;;;20.02;75.15;101167.13;5081549;28;45303;-76
2021/09/05 03:02:07;;;;;;;;;19.33;19.00;;;;;20.02;75.51;101161.75;5081418;28;45240;-76
2021/09/05 03:04:32;;;;;;;;;23.00;22.00;;;;;20.04;75.28;101170.41;5081180;28;45227;-76
2021/09/05 03:06:58;;;;;;;;;26.33;25.33;;;;;20.02;75.37;101161.75;5080882;28;46414;-76
2021/09/05 03:09:23;;;;;;;;;24.00;23.00;;;;;19.97;75.36;101159.69;5081025;28;45243;-76
2021/09/05 03:11:49;;;;;;;;;25.67;25.67;;;;;19.97;75.02;101161.56;5080073;28;45452;-76
2021/09/05 03:14:15;;;;;;;;;27.33;26.33;;;;;19.96;75.08;101171.50;5081284;28;45382;-76
2021/09/05 03:16:40;;;;;;;;;25.67;25.00;;;;;19.96;75.43;101173.41;5080458;28;45314;-75
2021/09/05 03:19:06;;;;;;;;;25.00;23.33;;;;;19.96;75.30;101170.69;5081163;28;45354;-75
2021/09/05 03:21:31;;;;;;;;;18.00;17.00;;;;;19.99;75.13;101179.16;5080999;28;45323;-76
2021/09/05 03:23:56;;;;;;;;;20.00;19.00;;;;;19.97;75.17;101167.78;5081047;27;45297;-76
2021/09/05 03:26:22;;;;;;;;;20.67;20.67;;;;;19.97;75.23;101167.78;5080608;27;46064;-76
2021/09/05 03:28:47;;;;;;;;;22.00;22.00;;;;;19.98;75.36;101164.03;5079612;28;46299;-76
2021/09/05 03:31:13;;;;;;;;;22.33;22.33;;;;;19.95;74.92;101167.16;5064627;28;45308;-76
2021/09/05 03:33:38;;;;;;;;;22.00;21.67;;;;;19.94;75.35;101160.94;5059059;28;46357;-76
2021/09/05 03:36:04;;;;;;;;;24.33;24.00;;;;;19.94;74.80;101169.03;5060450;28;46256;-76
2021/09/05 03:38:30;;;;;;;;;22.67;19.67;;;;;19.92;74.56;101165.75;5057807;28;45875;-75
2021/09/05 03:40:55;;;;;;;;;21.00;20.33;;;;;19.90;74.80;101162.44;5060388;28;45488;-76
2021/09/05 03:43:20;;;;;;;;;23.00;22.67;;;;;19.92;75.17;101170.31;5060390;28;45441;-76
2021/09/05 03:45:46;;;;;;;;;24.33;22.00;;;;;19.87;75.34;101159.41;5060365;28;45422;-76
2021/09/05 03:48:12;;;;;;;;;25.67;23.00;;;;;19.89;75.19;101159.97;5060539;28;45214;-76
2021/09/05 03:50:37;;;;;;;;;25.67;23.67;;;;;19.87;75.14;101157.50;5060453;28;45244;-76
2021/09/05 03:53:02;;;;;;;;;25.00;25.00;;;;;19.87;75.16;101170.19;5060268;28;45291;-76
2021/09/05 03:55:28;;;;;;;;;19.00;19.00;;;;;19.85;75.58;101158.78;5060036;28;46190;-76
2021/09/05 03:57:53;;;;;;;;;22.67;22.00;;;;;19.87;75.30;101167.50;5060244;28;45304;-76
2021/09/05 04:00:19;;;;;;;;;27.00;24.33;;;;;19.86;75.39;101169.34;5060719;28;45324;-76
2021/09/05 04:02:44;;;;;;;;;23.00;23.00;;;;;19.84;75.09;101163.34;5060210;28;45383;-76
2021/09/05 04:05:10;;;;;;;;;23.67;22.00;;;;;19.84;75.25;101160.66;5059929;28;45305;-75
2021/09/05 04:07:39;;;;;;;;;26.67;25.67;;;;;19.86;75.68;101165.81;5058364;28;45365;-76
2021/09/05 04:10:11;;;;;;;;;25.33;24.33;;;;;19.77;74.94;101149.97;5059978;28;45243;-75
2021/09/05 04:12:41;;;;;;;;;27.33;27.00;;;;;19.83;75.18;101159.03;5059824;28;45329;-75
2021/09/05 04:15:08;;;;;;;;;26.33;24.67;;;;;19.84;75.12;101171.44;5059696;28;46589;-76
2021/09/05 04:17:34;;;;;;;;;21.67;21.67;;;;;19.85;75.02;101169.59;5059966;28;45342;-76
2021/09/05 04:19:59;;;;;;;;;24.33;23.00;;;;;19.85;75.04;101164.19;5058663;28;45242;-75
2021/09/05 04:22:25;;;;;;;;;22.00;22.00;;;;;19.83;75.37;101167.09;5059482;28;45370;-76
2021/09/05 04:24:50;;;;;;;;;23.67;23.67;;;;;19.79;74.93;101160.53;5059575;28;46991;-76
2021/09/05 04:27:16;;;;;;;;;25.00;23.67;;;;;19.81;75.11;101159.25;5058434;28;45331;-76
2021/09/05 04:29:42;;;;;;;;;26.67;26.67;;;;;19.80;75.44;101171.09;5063321;28;45357;-76
2021/09/05 04:32:07;;;;;;;;;23.67;22.00;;;;;19.76;75.52;101159.13;5080168;28;45333;-76
2021/09/05 04:34:33;;;;;;;;;26.00;24.00;;;;;19.79;75.23;101171.31;5079932;28;45890;-76
2021/09/05 04:36:59;;;;;;;;;20.00;20.00;;;;;19.77;75.34;101174.22;5080196;28;45271;-76
2021/09/05 04:39:24;;;;;;;;;25.67;25.33;;;;;19.77;75.52;101176.94;5080201;28;45212;-76
2021/09/05 04:41:49;;;;;;;;;25.00;25.00;;;;;19.72;75.13;101168.69;5078729;28;46421;-75
2021/09/05 04:44:15;;;;;;;;;22.00;22.00;;;;;19.71;75.33;101185.09;5079799;28;45173;-76
2021/09/05 04:46:40;;;;;;;;;26.00;25.00;;;;;19.64;75.79;101190.56;5079851;28;45337;-76
2021/09/05 04:49:06;;;;;;;;;26.00;22.00;;;;;19.65;75.28;101192.19;5081879;28;45833;-76
2021/09/05 04:51:31;;;;;;;;;23.00;22.00;;;;;19.61;75.52;101202.63;5083553;28;45211;-76
2021/09/05 04:53:56;;;;;;;;;24.67;23.00;;;;;19.62;75.80;101203.44;5083260;28;46343;-76
2021/09/05 04:56:22;;;;;;;;;23.00;22.33;;;;;19.64;75.81;101204.84;5083299;28;45246;-76
2021/09/05 04:58:47;;;;;;;;;23.00;22.00;;;;;19.62;75.80;101204.25;5083405;28;45204;-76
2021/09/05 05:01:13;;;;;;;;;30.67;28.67;;;;;19.61;75.90;101201.78;5083526;28;45448;-76
2021/09/05 05:03:38;;;;;;;;;24.67;24.00;;;;;19.63;76.15;101205.91;5083558;28;46088;-77
2021/09/05 05:06:07;;;;;;;;;25.33;25.00;;;;;19.65;75.95;101214.59;5082077;28;45321;-76
2021/09/05 05:08:34;;;;;;;;;28.67;28.33;;;;;19.68;75.87;101207.94;5083414;28;45313;-76
2021/09/05 05:11:00;;;;;;;;;23.67;21.33;;;;;19.71;75.86;101207.50;5082897;27;45484;-76
2021/09/05 05:13:26;;;;;;;;;24.00;23.67;;;;;19.71;75.91;101212.88;5081827;28;47675;-76
2021/09/05 05:15:53;;;;;;;;;25.67;23.00;;;;;19.72;75.93;101214.53;5081405;28;45297;-76
2021/09/05 05:18:18;;;;;;;;;27.67;26.33;;;;;19.73;75.84;101215.34;5082919;28;45427;-76
2021/09/05 05:20:43;;;;;;;;;27.67;26.33;;;;;19.74;75.65;101217.81;5082824;28;45256;-76
2021/09/05 05:23:09;;;;;;;;;25.67;24.67;;;;;19.74;75.21;101223.22;5083406;28;46396;-76
2021/09/05 05:25:34;;;;;;;;;27.00;24.00;;;;;19.74;75.12;101225.91;5083003;27;45303;-76
2021/09/05 05:27:59;;;;;;;;;25.67;25.67;;;;;19.70;75.74;101223.88;5083081;27;45363;-76
2021/09/05 05:30:25;;;;;;;;;28.33;27.00;;;;;19.71;75.90;101237.16;5071818;28;46181;-76
2021/09/05 05:32:50;;;;;;;;;26.67;26.33;;;;;19.68;75.65;101233.03;5062713;28;45322;-77
2021/09/05 05:35:16;;;;;;;;;27.00;23.67;;;;;19.68;76.10;101234.91;5062381;28;45302;-76
2021/09/05 05:37:41;;;;;;;;;23.33;23.33;;;;;19.69;75.39;101239.22;5060845;28;45353;-76
2021/09/05 05:40:08;;;;;;;;;21.00;21.00;;;;;19.67;75.81;101241.34;5060920;28;45371;-77
2021/09/05 05:42:34;;;;;;;;;23.67;23.00;;;;;19.65;75.96;101244.25;5062322;28;47415;-75
2021/09/05 05:44:59;;;;;;;;;22.00;21.67;;;;;19.66;75.86;101245.91;5063023;28;45208;-75
2021/09/05 05:47:27;;;;;;;;;27.67;26.00;;;;;19.66;75.88;101243.22;5064971;28;45225;-75
2021/09/05 05:49:52;;;;;;;;;25.67;23.33;;;;;19.66;76.12;101248.59;5063975;28;46126;-76
2021/09/05 05:52:17;;;;;;;;;21.33;21.33;;;;;19.66;75.66;101245.91;5059804;28;46070;-76
2021/09/05 05:54:43;;;;;;;;;30.00;29.33;;;;;19.71;76.02;101256.03;5044880;28;45284;-76
2021/09/05 05:57:08;;;;;;;;;27.33;25.33;;;;;19.74;76.11;101252.88;5043753;28;45734;-75
2021/09/05 05:59:34;;;;;;;;;24.00;24.00;;;;;19.76;76.05;101256.19;5043519;28;45277;-76
2021/09/05 06:01:59;;;;;;;;;25.33;24.33;;;;;19.83;76.08;101252.56;5043445;28;48372;-75
2021/09/05 06:04:25;;;;;;;;;23.33;23.33;;;;;19.82;75.81;101251.78;5049856;28;45392;-76
2021/09/05 06:06:52;;;;;;;;;27.67;25.33;;;;;19.86;75.76;101252.13;5046305;28;45397;-77
2021/09/05 06:09:18;;;;;;;;;22.33;21.00;;;;;19.91;75.67;101261.19;5043492;28;46213;-75
2021/09/05 06:11:43;;;;;;;;;26.67;25.67;;;;;19.93;75.72;101267.19;5053988;28;46286;-77
2021/09/05 06:14:09;;;;;;;;;23.67;22.67;;;;;19.95;75.83;101264.28;5059889;28;45267;-76
2021/09/05 06:16:34;;;;;;;;;23.33;21.33;;;;;19.96;75.20;101267.81;5063002;28;45255;-75
2021/09/05 06:19:00;;;;;;;;;29.67;27.33;;;;;19.94;75.67;101268.03;5060037;28;45555;-77
2021/09/05 06:21:26;;;;;;;;;23.00;23.00;;;;;19.99;75.67;101276.25;5061225;28;46298;-77
2021/09/05 06:23:51;;;;;;;;;30.67;28.00;;;;;20.00;75.40;101277.94;5061206;28;45240;-75
2021/09/05 06:26:17;;;;;;;;;27.00;26.33;;;;;20.01;75.17;101276.91;5061247;28;45152;-75
2021/09/05 06:28:42;;;;;;;;;28.33;28.33;;;;;20.02;75.20;101277.72;5061167;28;45485;-74
2021/09/05 06:31:07;;;;;;;;;25.67;25.67;;;;;20.02;75.47;101275.84;5061291;28;45359;-76
2021/09/05 06:33:33;;;;;;;;;23.00;23.00;;;;;20.05;75.15;101283.47;5061354;28;45311;-77
2021/09/05 06:35:58;;;;;;;;;30.33;28.33;;;;;20.06;75.21;101282.44;5060688;28;45612;-77
2021/09/05 06:38:26;;;;;;;;;24.33;24.00;;;;;20.05;75.23;101282.66;5059156;28;45960;-77
2021/09/05 06:40:52;;;;;;;;;25.67;25.67;;;;;20.09;75.05;101288.44;5059558;28;47304;-74
2021/09/05 06:43:18;;;;;;;;;25.00;24.33;;;;;20.11;74.88;101291.75;5060973;28;45323;-75
2021/09/05 06:45:44;;;;;;;;;26.33;25.00;;;;;20.15;75.10;101299.16;5064115;28;45237;-77
2021/09/05 06:48:09;;;;;;;;;25.33;24.67;;;;;20.18;75.26;101301.38;5061708;28;45295;-75
2021/09/05 06:50:35;;;;;;;;;27.00;27.00;;;;;20.21;74.54;101300.13;5058758;28;45866;-75
2021/09/05 06:53:00;;;;;;;;;25.00;25.00;;;;;20.25;74.86;101306.72;5061967;28;45358;-75
2021/09/05 06:55:26;;;;;;;;;25.00;25.00;;;;;20.27;74.56;101307.34;5060552;28;45411;-75
2021/09/05 06:57:52;;;;;;;;;25.33;24.67;;;;;20.33;74.61;101318.25;5061975;28;45356;-75
2021/09/05 07:00:17;;;;;;;;;22.00;22.00;;;;;20.35;74.29;101318.88;5059656;28;45238;-77
2021/09/05 07:02:43;;;;;;;;;25.33;24.00;;;;;20.36;74.42;101312.41;5059508;28;45232;-77
2021/09/05 07:05:09;;;;;;;;;25.00;25.00;;;;;20.41;73.67;101323.38;5060171;28;45276;-79
2021/09/05 07:07:34;;;;;;;;;25.33;23.33;;;;;20.46;73.36;101322.66;5061428;28;45450;-79
2021/09/05 07:10:00;;;;;;;;;27.00;27.00;;;;;20.45;72.79;101332.66;5062709;28;46019;-80
2021/09/05 07:12:25;;;;;;;;;26.33;25.33;;;;;20.49;72.85;101331.16;5060502;28;45387;-80
2021/09/05 07:14:51;;;;;;;;;28.33;26.33;;;;;20.52;72.88;101329.84;5060829;28;45446;-81
2021/09/05 07:17:16;;;;;;;;;31.00;29.67;;;;;20.51;73.33;101329.06;5058709;28;45678;-79
2021/09/05 07:19:41;;;;;;;;;23.67;23.67;;;;;20.54;72.51;101338.56;5058594;28;45350;-79
2021/09/05 07:22:07;;;;;;;;;25.67;25.67;;;;;20.52;72.73;101328.00;5060253;28;45244;-79
2021/09/05 07:24:32;;;;;;;;;25.33;24.33;;;;;20.58;72.26;101334.34;5060066;28;45695;-79
2021/09/05 07:26:57;;;;;;;;;21.00;21.00;;;;;20.59;72.32;101325.19;5060341;28;45391;-79
2021/09/05 07:29:23;;;;;;;;;22.33;22.33;;;;;20.61;72.29;101342.00;5060207;28;45662;-79
2021/09/05 07:31:48;;;;;;;;;20.67;20.67;;;;;20.59;71.96;101327.09;5058859;28;45337;-79
2021/09/05 07:34:14;;;;;;;;;26.33;23.67;;;;;20.62;71.75;101335.53;5059754;28;45209;-79
2021/09/05 07:36:41;;;;;;;;;29.33;26.67;;;;;20.66;71.84;101323.25;5058807;28;46059;-80
2021/09/05 07:39:07;;;;;;;;;25.00;25.00;;;;;20.74;72.00;101332.09;5059810;28;46077;-80
2021/09/05 07:41:33;;;;;;;;;26.33;26.33;;;;;20.78;71.52;101326.00;5060080;28;45306;-82
2021/09/05 07:43:59;;;;;;;;;23.67;22.67;;;;;20.84;71.75;101326.13;5059571;28;45471;-83
2021/09/05 07:46:24;;;;;;;;;25.67;24.67;;;;;20.91;72.15;101334.97;5061086;28;45332;-83
2021/09/05 07:48:50;;;;;;;;;23.33;23.33;;;;;20.96;71.36;101335.13;5062240;28;45676;-83
2021/09/05 07:51:15;;;;;;;;;27.00;25.33;;;;;21.02;71.18;101338.78;5060483;28;45418;-83
2021/09/05 07:53:40;;;;;;;;;24.67;24.00;;;;;21.03;70.97;101343.97;5071471;28;45244;-82
2021/09/05 07:56:06;;;;;;;;;26.67;24.33;;;;;21.11;70.91;101352.78;5066394;28;45310;-79
2021/09/05 07:58:31;;;;;;;;;20.33;20.33;;;;;21.14;71.58;101346.94;5061264;28;46293;-78
2021/09/05 08:00:57;;;;;;;;;23.33;23.33;;;;;21.20;71.17;101351.41;5061045;28;45412;-79
2021/09/05 08:03:25;;;;;;;;;26.00;25.67;;;;;21.29;71.06;101350.03;5065336;28;45570;-79
2021/09/05 08:05:50;;;;;;;;;23.67;22.67;;;;;21.36;70.63;101355.31;5061841;28;45354;-80
2021/09/05 08:08:18;;;;;;;;;24.00;23.67;;;;;21.41;70.57;101354.63;5065294;28;47370;-79
2021/09/05 08:10:44;;;;;;;;;47.25;38.50;;;;;21.47;70.83;101361.81;5064017;28;45221;-80
2021/09/05 08:13:09;;;;;;;;;31.33;29.00;;;;;21.52;70.24;101361.91;5064290;28;45378;-79
2021/09/05 08:15:35;;;;;;;;;33.67;30.67;;;;;21.50;70.20;101364.06;5066848;28;45309;-81
2021/09/05 08:18:02;;;;;;;;;23.33;23.33;;;;;21.56;70.15;101365.00;5067519;28;47776;-80
2021/09/05 08:20:27;;;;;;;;;23.00;23.00;;;;;21.62;70.08;101365.94;5068207;28;45297;-79
2021/09/05 08:22:53;;;;;;;;;24.00;24.00;;;;;21.62;70.22;101368.66;5061462;28;45350;-80
2021/09/05 08:25:18;;;;;;;;;25.00;24.00;;;;;21.51;69.85;101360.28;5059598;28;45334;-78
2021/09/05 08:27:44;;;;;;;;;21.33;20.67;;;;;21.60;70.46;101384.28;5061490;28;45310;-78
2021/09/05 08:30:10;;;;;;;;;26.33;25.33;;;;;21.60;70.16;101378.84;5068605;28;45431;-78
2021/09/05 08:32:36;;;;;;;;;27.00;26.00;;;;;21.57;70.14;101372.88;5089594;28;45290;-78
2021/09/05 08:35:01;;;;;;;;;20.33;20.00;;;;;21.62;70.67;101390.28;5068750;28;45263;-79
2021/09/05 08:37:27;;;;;;;;;23.00;23.00;;;;;21.64;71.08;101399.81;5083197;27;46215;-80
2021/09/05 08:39:53;;;;;;;;;21.00;21.00;;;;;21.67;70.65;101396.63;5086569;28;45261;-80
2021/09/05 08:42:18;;;;;;;;;19.33;19.33;;;;;21.66;71.13;101391.44;5082033;28;45279;-81
2021/09/05 08:44:44;;;;;;;;;25.33;24.00;;;;;21.69;70.59;101394.53;5086083;28;45485;-80
2021/09/05 08:47:10;;;;;;;;;22.33;22.33;;;;;21.73;69.80;101400.28;5063644;28;45428;-80
2021/09/05 08:49:37;;;;;;;;;22.33;20.67;;;;;21.75;69.39;101390.09;5062226;28;45362;-79
2021/09/05 08:52:05;;;;;;;;;22.67;21.67;;;;;21.75;70.18;101392.78;5061147;28;45303;-79
2021/09/05 08:54:31;;;;;;;;;21.67;21.67;;;;;21.79;70.30;101396.69;5058647;28;46730;-79
2021/09/05 08:56:57;;;;;;;;;23.00;21.00;;;;;21.79;69.96;101391.25;5061126;28;45354;-78
2021/09/05 08:59:23;;;;;;;;;24.00;23.00;;;;;21.78;69.65;101394.19;5058327;28;45351;-79
2021/09/05 09:02:01;;;;;;;;;21.67;21.67;;;;;21.85;69.54;101396.81;5060450;28;45407;-81
2021/09/05 09:04:36;;;;;;;;;19.67;19.67;;;;;21.88;69.94;101402.56;5037954;28;45851;-79
2021/09/05 09:07:09;;;;;;;;;22.00;22.00;;;;;21.97;69.83;101410.34;5040158;28;45739;-79
2021/09/05 09:09:35;;;;;;;;;21.67;20.00;;;;;22.00;68.82;101412.56;5062290;28;45633;-80
2021/09/05 09:12:01;;;;;;;;;19.67;19.67;;;;;22.03;68.62;101404.78;5062305;28;45303;-80
2021/09/05 09:14:47;;;;;;;;;21.67;21.67;;;;;22.07;69.35;101408.69;5063497;28;45650;-80
2021/09/05 09:17:17;;;;;;;;;20.67;19.00;;;;;22.10;69.65;101406.56;5049485;28;45573;-81
2021/09/05 09:19:44;;;;;;;;;20.33;20.33;;;;;22.12;69.16;101405.25;5058148;28;45232;-78
2021/09/05 09:22:21;;;;;;;;;17.33;17.33;;;;;22.17;69.15;101402.69;5057307;28;45350;-79
2021/09/05 09:24:47;;;;;;;;;21.33;20.33;;;;;22.25;69.52;101403.38;5055391;28;45371;-78
2021/09/05 09:27:13;;;;;;;;;20.67;20.67;;;;;22.30;69.23;101396.19;5057124;28;47695;-79
2021/09/05 09:29:40;;;;;;;;;19.00;19.00;;;;;22.41;69.14;101402.66;5059086;28;45296;-84
2021/09/05 09:32:18;;;;;;;;;20.33;20.33;;;;;22.44;69.43;101395.94;5062462;28;45225;-84
2021/09/05 09:34:54;;;;;;;;;19.00;19.00;;;;;22.48;68.99;101390.88;5062048;28;45776;-84
2021/09/05 09:37:27;;;;;;;;;22.67;21.00;;;;;22.55;69.04;101399.69;5063995;28;46403;-84
2021/09/05 09:40:03;;;;;;;;;19.67;19.33;;;;;22.61;68.83;101378.97;5064432;28;45308;-81
2021/09/05 09:42:37;;;;;;;;;19.00;19.00;;;;;22.74;68.63;101391.44;5065012;28;45157;-80
2021/09/05 09:45:14;;;;;;;;;23.00;21.67;;;;;22.89;68.30;101389.00;5060776;28;45377;-81
2021/09/05 09:47:43;;;;;;;;;19.33;18.67;;;;;22.99;68.16;101399.22;5066462;28;45396;-81
2021/09/05 09:50:22;;;;;;;;;16.67;16.67;;;;;23.04;67.21;101388.47;5066188;28;45331;-81
2021/09/05 09:52:48;;;;;;;;;21.67;21.67;;;;;23.13;67.03;101386.19;5062445;28;45302;-82
2021/09/05 09:55:14;;;;;;;;;18.00;17.33;;;;;23.31;66.49;101384.31;5064184;28;45753;-81
2021/09/05 09:57:42;;;;;;;;;13.00;13.00;;;;;23.47;66.96;101388.16;5065651;28;45444;-82
2021/09/05 10:00:19;;;;;;;;;17.00;16.33;;;;;23.63;65.98;101388.38;5063650;28;45421;-82
2021/09/05 10:02:50;;;;;;;;;13.00;13.00;;;;;23.74;66.20;101387.50;5065989;28;45297;-81
2021/09/05 10:05:22;;;;;;;;;11.00;11.00;;;;;23.79;66.22;101376.72;5064785;28;45247;-80
2021/09/05 10:07:57;;;;;;;;;11.33;11.33;;;;;23.94;65.27;101373.41;5059950;28;46247;-80
2021/09/05 10:10:24;;;;;;;;;15.33;15.00;;;;;24.17;65.13;101392.47;5060082;28;45259;-76
2021/09/05 10:12:58;;;;;;;;;11.67;11.67;;;;;24.34;65.23;101387.00;5060470;28;45322;-78
2021/09/05 10:15:39;;;;;;;;;12.67;12.67;;;;;24.49;64.69;101397.25;5060085;28;45429;-77
2021/09/05 10:18:06;;;;;;;;;12.33;12.00;;;;;24.70;63.39;101402.91;5060497;28;46659;-79
2021/09/05 10:20:35;;;;;;;;;12.00;12.00;;;;;24.80;63.20;101392.16;5061798;28;45372;-80
2021/09/05 10:23:06;;;;;;;;;13.67;13.00;;;;;25.01;62.87;101400.56;5060260;28;45442;-78
2021/09/05 10:25:37;;;;;;;;;10.67;10.67;;;;;25.10;62.32;101392.75;5061268;28;45384;-81
2021/09/05 10:28:05;;;;;;;;;11.00;11.00;;;;;25.28;62.27;101398.88;5059845;28;45681;-83
2021/09/05 10:30:36;;;;;;;;;12.33;12.00;;;;;25.40;62.48;101390.56;5059716;28;45266;-82
2021/09/05 10:33:02;;;;;;;;;12.00;12.00;;;;;25.52;61.69;101385.78;5060076;28;45753;-81
2021/09/05 10:35:29;;;;;;;;;12.67;12.67;;;;;25.69;61.10;101382.94;5061018;28;45471;-81
2021/09/05 10:38:18;;;;;;;;;12.67;10.33;;;;;25.92;60.74;101388.25;5059902;28;45443;-81
2021/09/05 10:40:43;;;;;;;;;12.33;12.33;;;;;26.09;61.05;101386.19;5061213;28;45545;-78
2021/09/05 10:43:10;;;;;;;;;13.00;12.00;;;;;26.22;61.54;101382.16;5061385;28;45338;-79
2021/09/05 10:45:41;;;;;;;;;12.67;12.67;;;;;26.37;60.84;101382.53;5061275;28;45363;-82
2021/09/05 10:48:28;;;;;;;;;12.67;11.00;;;;;26.58;59.97;101391.59;5060804;28;45287;-81
2021/09/05 10:50:53;;;;;;;;;15.67;13.67;;;;;26.69;58.62;101393.25;5060719;28;45481;-81
2021/09/05 10:53:22;;;;;;;;;11.00;11.00;;;;;26.76;58.76;101378.56;5060375;28;45598;-79
2021/09/05 10:56:23;;;;;;;;;12.67;12.33;;;;;26.94;59.19;101379.97;5055998;28;45488;-80
2021/09/05 10:59:07;;;;;;;;;15.00;13.33;;;;;27.03;57.77;101383.84;5039182;28;47491;-80
2021/09/05 11:01:37;;;;;;;;;13.67;13.33;;;;;27.11;56.90;101374.28;5042214;28;45536;-81
2021/09/05 11:04:12;;;;;;;;;12.33;12.33;;;;;27.23;55.82;101379.47;5060937;28;45319;-81
2021/09/05 11:06:50;;;;;;;;;12.00;12.00;;;;;27.34;57.38;101380.28;5059063;28;46209;-78
2021/09/05 11:09:19;;;;;;;;;12.67;12.00;;;;;27.44;58.03;101379.44;5059806;28;45315;-79